Terminal Aerodrome Forecast
Issued by NWS St Louis, MO

Home | Current Version | Previous Version | Graphics & Text | Print | Product List | Glossary On
Versions: 1 2 3 4 5 6 7 8 9 10 11 12 13 14 15 16 17 18 19 20 21 22 23 24 25 26 27 28 29 30 31 32 33
740
FTUS43 KLSX 261500 AAA
TAFSTL
TAF AMD
KSTL 261500Z 2615/2718 22007KT P6SM OVC012
     FM261800 24006KT P6SM OVC020
     FM262000 24007KT P6SM BKN040
     FM271100 13004KT P6SM OVC030
     FM271300 12005KT 5SM -SHRA OVC025=

USA.gov is the U.S. government's official web portal to all federal, state and local government web resources and services.